sensor_id;sensor_type;location;lat;lon;timestamp;pressure;altitude;pressure_sealevel;temperature;humidity
22550;BME280;11441;57.164;-2.120;2023-07-24T00:00:34;100341.91;;;12.14;100.00
22550;BME280;11441;57.164;-2.120;2023-07-24T00:03:02;100331.59;;;12.11;100.00
22550;BME280;11441;57.164;-2.120;2023-07-24T00:05:29;100325.94;;;12.00;100.00
22550;BME280;11441;57.164;-2.120;2023-07-24T00:07:56;100338.59;;;12.05;100.00
22550;BME280;11441;57.164;-2.120;2023-07-24T00:10:23;100336.94;;;11.97;100.00
22550;BME280;11441;57.164;-2.120;2023-07-24T00:12:50;100343.09;;;11.90;100.00
22550;BME280;11441;57.164;-2.120;2023-07-24T00:15:17;100339.69;;;11.97;100.00
22550;BME280;11441;57.164;-2.120;2023-07-24T00:17:44;100337.91;;;11.85;100.00
22550;BME280;11441;57.164;-2.120;2023-07-24T00:20:11;100331.22;;;11.86;100.00
22550;BME280;11441;57.164;-2.120;2023-07-24T00:22:38;100332.75;;;11.83;100.00
22550;BME280;11441;57.164;-2.120;2023-07-24T00:25:05;100331.94;;;11.79;100.00
22550;BME280;11441;57.164;-2.120;2023-07-24T00:27:32;100333.13;;;11.82;100.00
22550;BME280;11441;57.164;-2.120;2023-07-24T00:29:59;100337.34;;;11.72;100.00
22550;BME280;11441;57.164;-2.120;2023-07-24T00:32:26;100331.00;;;11.72;100.00
22550;BME280;11441;57.164;-2.120;2023-07-24T00:34:54;100312.84;;;11.67;100.00
22550;BME280;11441;57.164;-2.120;2023-07-24T00:37:23;100323.88;;;11.67;100.00
22550;BME280;11441;57.164;-2.120;2023-07-24T00:39:50;100323.47;;;11.68;100.00
22550;BME280;11441;57.164;-2.120;2023-07-24T00:42:17;100319.19;;;11.71;100.00
22550;BME280;11441;57.164;-2.120;2023-07-24T00:44:47;100325.50;;;11.72;100.00
22550;BME280;11441;57.164;-2.120;2023-07-24T00:47:16;100333.59;;;11.61;100.00
22550;BME280;11441;57.164;-2.120;2023-07-24T00:49:45;100331.31;;;11.66;100.00
22550;BME280;11441;57.164;-2.120;2023-07-24T00:52:13;100316.84;;;11.46;100.00
22550;BME280;11441;57.164;-2.120;2023-07-24T00:54:41;100324.38;;;11.49;100.00
22550;BME280;11441;57.164;-2.120;2023-07-24T00:57:08;100335.34;;;11.46;100.00
22550;BME280;11441;57.164;-2.120;2023-07-24T00:59:35;100323.88;;;11.44;100.00
22550;BME280;11441;57.164;-2.120;2023-07-24T01:02:02;100331.69;;;11.38;100.00
22550;BME280;11441;57.164;-2.120;2023-07-24T01:04:29;100331.53;;;11.54;100.00
22550;BME280;11441;57.164;-2.120;2023-07-24T01:06:57;100325.91;;;11.47;100.00
22550;BME280;11441;57.164;-2.120;2023-07-24T01:09:23;100323.63;;;11.52;100.00
22550;BME280;11441;57.164;-2.120;2023-07-24T01:11:56;100324.66;;;11.41;100.00
22550;BME280;11441;57.164;-2.120;2023-07-24T01:17:27;100319.06;;;11.37;100.00
22550;BME280;11441;57.164;-2.120;2023-07-24T01:19:58;100318.50;;;11.28;100.00
22550;BME280;11441;57.164;-2.120;2023-07-24T01:27:45;100322.56;;;11.34;100.00
22550;BME280;11441;57.164;-2.120;2023-07-24T01:30:14;100313.94;;;11.36;100.00
22550;BME280;11441;57.164;-2.120;2023-07-24T01:32:41;100313.72;;;11.25;100.00
22550;BME280;11441;57.164;-2.120;2023-07-24T01:35:08;100310.31;;;11.31;100.00
22550;BME280;11441;57.164;-2.120;2023-07-24T01:37:35;100315.03;;;11.31;100.00
22550;BME280;11441;57.164;-2.120;2023-07-24T01:40:07;100314.84;;;11.20;100.00
22550;BME280;11441;57.164;-2.120;2023-07-24T01:42:35;100300.56;;;11.14;100.00
22550;BME280;11441;57.164;-2.120;2023-07-24T01:45:20;100309.66;;;11.15;100.00
22550;BME280;11441;57.164;-2.120;2023-07-24T01:47:47;100309.19;;;11.09;100.00
22550;BME280;11441;57.164;-2.120;2023-07-24T01:50:14;100309.31;;;10.97;100.00
22550;BME280;11441;57.164;-2.120;2023-07-24T01:52:41;100310.81;;;10.91;100.00
22550;BME280;11441;57.164;-2.120;2023-07-24T01:55:08;100303.50;;;11.02;100.00
22550;BME280;11441;57.164;-2.120;2023-07-24T01:57:35;100302.38;;;11.03;100.00
22550;BME280;11441;57.164;-2.120;2023-07-24T02:00:02;100294.59;;;10.86;100.00
22550;BME280;11441;57.164;-2.120;2023-07-24T02:02:56;100290.38;;;10.92;100.00
22550;BME280;11441;57.164;-2.120;2023-07-24T02:05:41;100299.38;;;10.89;100.00
22550;BME280;11441;57.164;-2.120;2023-07-24T02:08:08;100296.63;;;10.89;100.00
22550;BME280;11441;57.164;-2.120;2023-07-24T02:10:37;100289.38;;;10.81;100.00
22550;BME280;11441;57.164;-2.120;2023-07-24T02:13:04;100298.84;;;10.83;100.00
22550;BME280;11441;57.164;-2.120;2023-07-24T02:15:34;100287.84;;;10.83;100.00
22550;BME280;11441;57.164;-2.120;2023-07-24T02:18:01;100279.31;;;10.69;100.00
22550;BME280;11441;57.164;-2.120;2023-07-24T02:20:29;100286.50;;;10.73;100.00
22550;BME280;11441;57.164;-2.120;2023-07-24T02:22:55;100280.13;;;10.69;100.00
22550;BME280;11441;57.164;-2.120;2023-07-24T02:25:22;100274.72;;;10.53;100.00
22550;BME280;11441;57.164;-2.120;2023-07-24T02:27:49;100281.66;;;10.67;100.00
22550;BME280;11441;57.164;-2.120;2023-07-24T02:30:16;100287.28;;;10.74;100.00
22550;BME280;11441;57.164;-2.120;2023-07-24T02:32:43;100276.25;;;10.51;100.00
22550;BME280;11441;57.164;-2.120;2023-07-24T02:35:10;100290.44;;;10.53;100.00
22550;BME280;11441;57.164;-2.120;2023-07-24T02:37:37;100288.88;;;10.52;100.00
22550;BME280;11441;57.164;-2.120;2023-07-24T02:40:04;100283.56;;;10.43;100.00
22550;BME280;11441;57.164;-2.120;2023-07-24T02:42:50;100289.88;;;10.44;100.00
22550;BME280;11441;57.164;-2.120;2023-07-24T02:45:16;100289.38;;;10.38;100.00
22550;BME280;11441;57.164;-2.120;2023-07-24T02:47:43;100283.50;;;10.40;100.00
22550;BME280;11441;57.164;-2.120;2023-07-24T02:50:29;100281.97;;;10.23;100.00
22550;BME280;11441;57.164;-2.120;2023-07-24T02:52:56;100283.50;;;10.40;100.00
22550;BME280;11441;57.164;-2.120;2023-07-24T02:55:22;100283.50;;;10.40;100.00
22550;BME280;11441;57.164;-2.120;2023-07-24T02:57:50;100280.59;;;10.32;100.00
22550;BME280;11441;57.164;-2.120;2023-07-24T03:00:17;100276.53;;;10.26;100.00
22550;BME280;11441;57.164;-2.120;2023-07-24T03:03:01;100270.72;;;10.12;100.00
22550;BME280;11441;57.164;-2.120;2023-07-24T03:05:28;100263.22;;;10.09;100.00
22550;BME280;11441;57.164;-2.120;2023-07-24T03:08:12;100270.00;;;10.15;100.00
22550;BME280;11441;57.164;-2.120;2023-07-24T03:10:42;100271.47;;;10.09;100.00
22550;BME280;11441;57.164;-2.120;2023-07-24T03:13:09;100276.13;;;10.24;100.00
22550;BME280;11441;57.164;-2.120;2023-07-24T03:15:36;100273.34;;;10.24;100.00
22550;BME280;11441;57.164;-2.120;2023-07-24T03:18:03;100273.28;;;10.21;100.00
22550;BME280;11441;57.164;-2.120;2023-07-24T03:20:30;100274.16;;;10.25;100.00
22550;BME280;11441;57.164;-2.120;2023-07-24T03:22:57;100286.19;;;10.36;100.00
22550;BME280;11441;57.164;-2.120;2023-07-24T03:25:24;100272.47;;;10.40;100.00
22550;BME280;11441;57.164;-2.120;2023-07-24T03:27:51;100280.31;;;10.37;100.00
22550;BME280;11441;57.164;-2.120;2023-07-24T03:30:19;100282.19;;;10.53;100.00
22550;BME280;11441;57.164;-2.120;2023-07-24T03:32:47;100282.91;;;10.50;100.00
22550;BME280;11441;57.164;-2.120;2023-07-24T03:35:13;100276.63;;;10.49;100.00
22550;BME280;11441;57.164;-2.120;2023-07-24T03:37:40;100269.19;;;10.53;100.00
22550;BME280;11441;57.164;-2.120;2023-07-24T03:40:07;100280.13;;;10.69;100.00
22550;BME280;11441;57.164;-2.120;2023-07-24T03:42:34;100280.88;;;10.66;100.00
22550;BME280;11441;57.164;-2.120;2023-07-24T03:45:01;100293.75;;;10.62;100.00
22550;BME280;11441;57.164;-2.120;2023-07-24T03:47:28;100285.56;;;10.66;100.00
22550;BME280;11441;57.164;-2.120;2023-07-24T03:49:55;100282.19;;;10.53;100.00
22550;BME280;11441;57.164;-2.120;2023-07-24T03:52:22;100278.66;;;10.75;100.00
22550;BME280;11441;57.164;-2.120;2023-07-24T03:54:51;100286.13;;;10.75;100.00
22550;BME280;11441;57.164;-2.120;2023-07-24T03:57:18;100282.38;;;10.64;100.00
22550;BME280;11441;57.164;-2.120;2023-07-24T03:59:45;100285.66;;;10.69;100.00
22550;BME280;11441;57.164;-2.120;2023-07-24T04:02:12;100269.84;;;10.66;100.00
22550;BME280;11441;57.164;-2.120;2023-07-24T04:04:39;100272.06;;;10.80;100.00
22550;BME280;11441;57.164;-2.120;2023-07-24T04:07:05;100275.47;;;10.73;100.00
22550;BME280;11441;57.164;-2.120;2023-07-24T04:09:32;100279.78;;;10.51;100.00
22550;BME280;11441;57.164;-2.120;2023-07-24T04:12:00;100280.38;;;10.61;100.00
22550;BME280;11441;57.164;-2.120;2023-07-24T04:14:27;100279.63;;;10.64;100.00
22550;BME280;11441;57.164;-2.120;2023-07-24T04:16:54;100261.53;;;10.63;100.00
22550;BME280;11441;57.164;-2.120;2023-07-24T04:19:22;100280.13;;;10.69;100.00
22550;BME280;11441;57.164;-2.120;2023-07-24T04:21:49;100267.28;;;10.77;100.00
22550;BME280;11441;57.164;-2.120;2023-07-24T04:24:16;100269.25;;;10.77;100.00
22550;BME280;11441;57.164;-2.120;2023-07-24T04:26:43;100288.63;;;10.61;100.00
22550;BME280;11441;57.164;-2.120;2023-07-24T04:29:09;100284.78;;;10.65;100.00
22550;BME280;11441;57.164;-2.120;2023-07-24T04:31:36;100281.22;;;10.65;100.00
22550;BME280;11441;57.164;-2.120;2023-07-24T04:34:03;100295.53;;;10.74;100.00
22550;BME280;11441;57.164;-2.120;2023-07-24T04:36:30;100292.56;;;10.83;100.00
22550;BME280;11441;57.164;-2.120;2023-07-24T04:38:57;100290.09;;;10.78;100.00
22550;BME280;11441;57.164;-2.120;2023-07-24T04:41:24;100285.72;;;10.73;100.00
22550;BME280;11441;57.164;-2.120;2023-07-24T04:43:51;100288.88;;;10.75;100.00
22550;BME280;11441;57.164;-2.120;2023-07-24T04:46:18;100293.75;;;10.82;100.00
22550;BME280;11441;57.164;-2.120;2023-07-24T04:48:45;100299.97;;;10.79;100.00
22550;BME280;11441;57.164;-2.120;2023-07-24T04:51:12;100299.66;;;10.84;100.00
22550;BME280;11441;57.164;-2.120;2023-07-24T04:53:39;100289.69;;;10.75;100.00
22550;BME280;11441;57.164;-2.120;2023-07-24T04:56:06;100302.25;;;10.96;100.00
22550;BME280;11441;57.164;-2.120;2023-07-24T04:58:33;100297.34;;;10.86;100.00
22550;BME280;11441;57.164;-2.120;2023-07-24T05:01:04;100293.31;;;11.03;100.00
22550;BME280;11441;57.164;-2.120;2023-07-24T05:03:49;100290.81;;;10.94;100.00
22550;BME280;11441;57.164;-2.120;2023-07-24T05:06:16;100288.41;;;10.92;100.00
22550;BME280;11441;57.164;-2.120;2023-07-24T05:08:42;100300.63;;;10.95;100.00
22550;BME280;11441;57.164;-2.120;2023-07-24T05:11:09;100290.97;;;11.05;100.00
22550;BME280;11441;57.164;-2.120;2023-07-24T05:13:36;100301.16;;;11.01;100.00
22550;BME280;11441;57.164;-2.120;2023-07-24T05:16:03;100287.50;;;11.08;100.00
22550;BME280;11441;57.164;-2.120;2023-07-24T05:18:30;100295.41;;;11.09;100.00
22550;BME280;11441;57.164;-2.120;2023-07-24T05:20:57;100287.28;;;10.97;100.00
22550;BME280;11441;57.164;-2.120;2023-07-24T05:23:24;100300.75;;;11.02;100.00
22550;BME280;11441;57.164;-2.120;2023-07-24T05:26:01;100288.09;;;10.98;100.00
22550;BME280;11441;57.164;-2.120;2023-07-24T05:28:30;100297.69;;;11.07;100.00
22550;BME280;11441;57.164;-2.120;2023-07-24T05:31:04;100296.84;;;11.26;100.00
22550;BME280;11441;57.164;-2.120;2023-07-24T05:33:31;100297.69;;;11.07;100.00
22550;BME280;11441;57.164;-2.120;2023-07-24T05:36:02;100301.81;;;11.17;100.00
22550;BME280;11441;57.164;-2.120;2023-07-24T05:38:30;100298.25;;;11.17;100.00
22550;BME280;11441;57.164;-2.120;2023-07-24T05:41:02;100303.72;;;11.13;100.00
22550;BME280;11441;57.164;-2.120;2023-07-24T05:43:30;100311.47;;;11.30;100.00
22550;BME280;11441;57.164;-2.120;2023-07-24T05:45:57;100309.19;;;11.36;100.00
22550;BME280;11441;57.164;-2.120;2023-07-24T05:48:24;100311.59;;;11.38;100.00
22550;BME280;11441;57.164;-2.120;2023-07-24T05:50:51;100301.34;;;11.38;100.00
22550;BME280;11441;57.164;-2.120;2023-07-24T05:53:18;100311.53;;;11.34;100.00
22550;BME280;11441;57.164;-2.120;2023-07-24T05:55:45;100311.59;;;11.14;100.00
22550;BME280;11441;57.164;-2.120;2023-07-24T05:58:12;100303.31;;;11.14;100.00
22550;BME280;11441;57.164;-2.120;2023-07-24T06:00:39;100299.06;;;11.44;100.00
22550;BME280;11441;57.164;-2.120;2023-07-24T06:03:06;100298.38;;;11.50;100.00
22550;BME280;11441;57.164;-2.120;2023-07-24T06:05:34;100297.53;;;11.46;100.00
22550;BME280;11441;57.164;-2.120;2023-07-24T06:08:01;100296.09;;;11.56;100.00
22550;BME280;11441;57.164;-2.120;2023-07-24T06:10:28;100295.63;;;11.50;100.00
22550;BME280;11441;57.164;-2.120;2023-07-24T06:12:55;100296.03;;;11.52;100.00
22550;BME280;11441;57.164;-2.120;2023-07-24T06:15:22;100295.22;;;11.48;100.00
22550;BME280;11441;57.164;-2.120;2023-07-24T06:17:49;100293.19;;;11.45;100.00
22550;BME280;11441;57.164;-2.120;2023-07-24T06:20:20;100292.78;;;11.43;100.00
22550;BME280;11441;57.164;-2.120;2023-07-24T06:22:47;100297.06;;;11.41;100.00
22550;BME280;11441;57.164;-2.120;2023-07-24T06:25:13;100297.13;;;11.44;100.00
22550;BME280;11441;57.164;-2.120;2023-07-24T06:27:40;100301.50;;;11.49;100.00
22550;BME280;11441;57.164;-2.120;2023-07-24T06:30:07;100306.34;;;11.56;100.00
22550;BME280;11441;57.164;-2.120;2023-07-24T06:32:42;100302.38;;;11.53;100.00
22550;BME280;11441;57.164;-2.120;2023-07-24T06:35:09;100316.53;;;11.51;100.00
22550;BME280;11441;57.164;-2.120;2023-07-24T06:37:36;100302.31;;;11.49;100.00
22550;BME280;11441;57.164;-2.120;2023-07-24T06:40:03;100309.53;;;11.58;100.00
22550;BME280;11441;57.164;-2.120;2023-07-24T06:42:30;100305.66;;;11.36;100.00
22550;BME280;11441;57.164;-2.120;2023-07-24T06:44:57;100299.44;;;11.42;100.00
22550;BME280;11441;57.164;-2.120;2023-07-24T06:47:24;100306.25;;;11.48;100.00
22550;BME280;11441;57.164;-2.120;2023-07-24T06:49:51;100307.31;;;11.67;100.00
22550;BME280;11441;57.164;-2.120;2023-07-24T06:52:18;100306.66;;;11.50;100.00
22550;BME280;11441;57.164;-2.120;2023-07-24T06:54:44;100305.34;;;11.67;100.00
22550;BME280;11441;57.164;-2.120;2023-07-24T06:57:11;100308.47;;;11.93;100.00
22550;BME280;11441;57.164;-2.120;2023-07-24T06:59:38;100307.41;;;11.74;100.00
22550;BME280;11441;57.164;-2.120;2023-07-24T07:02:05;100304.25;;;11.72;100.00
22550;BME280;11441;57.164;-2.120;2023-07-24T07:04:32;100298.63;;;11.68;100.00
22550;BME280;11441;57.164;-2.120;2023-07-24T07:06:59;100304.38;;;11.83;100.00
22550;BME280;11441;57.164;-2.120;2023-07-24T07:09:44;100304.34;;;11.79;100.00
22550;BME280;11441;57.164;-2.120;2023-07-24T07:12:11;100306.94;;;11.95;100.00
22550;BME280;11441;57.164;-2.120;2023-07-24T07:14:38;100305.97;;;12.11;100.00
22550;BME280;11441;57.164;-2.120;2023-07-24T07:17:05;100315.44;;;12.13;100.00
22550;BME280;11441;57.164;-2.120;2023-07-24T07:19:50;100318.22;;;12.13;100.00
22550;BME280;11441;57.164;-2.120;2023-07-24T07:22:17;100310.81;;;12.21;100.00
22550;BME280;11441;57.164;-2.120;2023-07-24T07:24:44;100325.09;;;12.26;100.00
22550;BME280;11441;57.164;-2.120;2023-07-24T07:27:13;100309.28;;;12.23;100.00
22550;BME280;11441;57.164;-2.120;2023-07-24T07:29:39;100321.03;;;12.51;100.00
22550;BME280;11441;57.164;-2.120;2023-07-24T07:32:07;100315.56;;;12.54;100.00
22550;BME280;11441;57.164;-2.120;2023-07-24T07:34:34;100317.91;;;12.52;100.00
22550;BME280;11441;57.164;-2.120;2023-07-24T07:37:02;100322.41;;;12.34;100.00
22550;BME280;11441;57.164;-2.120;2023-07-24T07:39:29;100305.75;;;12.60;100.00
22550;BME280;11441;57.164;-2.120;2023-07-24T07:41:56;100314.88;;;12.64;100.00
22550;BME280;11441;57.164;-2.120;2023-07-24T07:44:42;100325.66;;;12.43;100.00
22550;BME280;11441;57.164;-2.120;2023-07-24T07:47:09;100321.75;;;12.44;100.00
22550;BME280;11441;57.164;-2.120;2023-07-24T07:49:36;100337.41;;;12.36;100.00
22550;BME280;11441;57.164;-2.120;2023-07-24T07:52:21;100324.84;;;12.39;100.00
22550;BME280;11441;57.164;-2.120;2023-07-24T07:54:49;100317.34;;;12.39;100.00
22550;BME280;11441;57.164;-2.120;2023-07-24T07:57:16;100330.59;;;12.60;100.00
22550;BME280;11441;57.164;-2.120;2023-07-24T07:59:42;100320.38;;;12.61;100.00
22550;BME280;11441;57.164;-2.120;2023-07-24T08:02:09;100315.25;;;12.63;100.00
22550;BME280;11441;57.164;-2.120;2023-07-24T08:04:36;100326.56;;;12.51;100.00
22550;BME280;11441;57.164;-2.120;2023-07-24T08:07:03;100322.66;;;12.55;100.00
22550;BME280;11441;57.164;-2.120;2023-07-24T08:09:30;100321.44;;;12.53;100.00
22550;BME280;11441;57.164;-2.120;2023-07-24T08:11:59;100323.56;;;12.67;100.00
22550;BME280;11441;57.164;-2.120;2023-07-24T08:14:26;100324.44;;;12.37;100.00
22550;BME280;11441;57.164;-2.120;2023-07-24T08:16:53;100326.91;;;12.45;100.00
22550;BME280;11441;57.164;-2.120;2023-07-24T08:19:20;100324.38;;;12.67;100.00
22550;BME280;11441;57.164;-2.120;2023-07-24T08:21:47;100316.97;;;12.41;100.00
22550;BME280;11441;57.164;-2.120;2023-07-24T08:24:35;100331.34;;;12.57;100.00
22550;BME280;11441;57.164;-2.120;2023-07-24T08:27:21;100337.31;;;12.59;100.00
22550;BME280;11441;57.164;-2.120;2023-07-24T08:29:50;100333.13;;;12.39;100.00
22550;BME280;11441;57.164;-2.120;2023-07-24T08:32:18;100326.34;;;12.33;100.00
22550;BME280;11441;57.164;-2.120;2023-07-24T08:34:45;100340.81;;;12.56;100.00
22550;BME280;11441;57.164;-2.120;2023-07-24T08:37:12;100329.28;;;12.47;100.00
22550;BME280;11441;57.164;-2.120;2023-07-24T08:39:39;100351.75;;;12.45;100.00
22550;BME280;11441;57.164;-2.120;2023-07-24T08:42:11;100344.78;;;12.59;100.00
22550;BME280;11441;57.164;-2.120;2023-07-24T08:44:39;100334.31;;;12.75;100.00
22550;BME280;11441;57.164;-2.120;2023-07-24T08:47:09;100344.41;;;12.60;100.00
22550;BME280;11441;57.164;-2.120;2023-07-24T08:49:38;100340.13;;;12.63;100.00
22550;BME280;11441;57.164;-2.120;2023-07-24T08:52:07;100340.97;;;12.71;100.00
22550;BME280;11441;57.164;-2.120;2023-07-24T08:54:57;100334.59;;;12.63;100.00
22550;BME280;11441;57.164;-2.120;2023-07-24T08:57:27;100341.69;;;12.64;100.00
22550;BME280;11441;57.164;-2.120;2023-07-24T08:59:54;100336.94;;;12.61;100.00
22550;BME280;11441;57.164;-2.120;2023-07-24T09:02:21;100336.34;;;12.78;100.00
22550;BME280;11441;57.164;-2.120;2023-07-24T09:05:06;100332.53;;;12.56;100.00
22550;BME280;11441;57.164;-2.120;2023-07-24T09:07:34;100339.47;;;12.77;100.00
22550;BME280;11441;57.164;-2.120;2023-07-24T09:10:01;100322.81;;;12.70;100.00
22550;BME280;11441;57.164;-2.120;2023-07-24T09:12:28;100333.78;;;12.62;100.00
22550;BME280;11441;57.164;-2.120;2023-07-24T09:15:05;100314.97;;;12.75;100.00
22550;BME280;11441;57.164;-2.120;2023-07-24T09:17:34;100324.97;;;12.87;100.00
22550;BME280;11441;57.164;-2.120;2023-07-24T09:20:01;100317.38;;;12.77;100.00
22550;BME280;11441;57.164;-2.120;2023-07-24T09:22:29;100320.47;;;13.13;100.00
22550;BME280;11441;57.164;-2.120;2023-07-24T09:24:57;100317.03;;;13.27;100.00
22550;BME280;11441;57.164;-2.120;2023-07-24T09:27:26;100316.25;;;13.26;100.00
22550;BME280;11441;57.164;-2.120;2023-07-24T09:29:54;100317.63;;;13.50;100.00
22550;BME280;11441;57.164;-2.120;2023-07-24T09:32:23;100328.19;;;13.37;100.00
22550;BME280;11441;57.164;-2.120;2023-07-24T09:34:50;100317.09;;;13.34;100.00
22550;BME280;11441;57.164;-2.120;2023-07-24T09:37:25;100300.97;;;13.39;100.00
22550;BME280;11441;57.164;-2.120;2023-07-24T09:39:52;100295.94;;;13.56;100.00
22550;BME280;11441;57.164;-2.120;2023-07-24T09:42:30;100300.84;;;13.84;100.00
22550;BME280;11441;57.164;-2.120;2023-07-24T09:44:58;100293.13;;;14.22;100.00
22550;BME280;11441;57.164;-2.120;2023-07-24T09:47:25;100312.00;;;13.95;100.00
22550;BME280;11441;57.164;-2.120;2023-07-24T09:50:12;100311.16;;;13.91;100.00
22550;BME280;11441;57.164;-2.120;2023-07-24T09:52:41;100320.13;;;13.66;100.00
22550;BME280;11441;57.164;-2.120;2023-07-24T09:55:30;100301.25;;;13.86;100.00
22550;BME280;11441;57.164;-2.120;2023-07-24T09:58:01;100300.25;;;14.20;100.00
22550;BME280;11441;57.164;-2.120;2023-07-24T10:00:29;100309.09;;;13.73;100.00
22550;BME280;11441;57.164;-2.120;2023-07-24T10:02:57;100310.00;;;13.92;100.00
22550;BME280;11441;57.164;-2.120;2023-07-24T10:05:25;100311.19;;;13.98;100.00
22550;BME280;11441;57.164;-2.120;2023-07-24T10:07:52;100320.69;;;13.93;100.00
22550;BME280;11441;57.164;-2.120;2023-07-24T10:10:20;100316.66;;;13.84;100.00
22550;BME280;11441;57.164;-2.120;2023-07-24T10:12:48;100313.06;;;13.72;100.00
22550;BME280;11441;57.164;-2.120;2023-07-24T10:15:16;100318.19;;;13.74;100.00
22550;BME280;11441;57.164;-2.120;2023-07-24T10:17:43;100318.28;;;13.85;100.00
22550;BME280;11441;57.164;-2.120;2023-07-24T10:20:11;100320.25;;;13.88;100.00
22550;BME280;11441;57.164;-2.120;2023-07-24T10:23:00;100311.59;;;14.00;100.00
22550;BME280;11441;57.164;-2.120;2023-07-24T10:25:31;100312.81;;;13.99;100.00
22550;BME280;11441;57.164;-2.120;2023-07-24T10:28:09;100308.00;;;13.89;100.00
22550;BME280;11441;57.164;-2.120;2023-07-24T10:30:38;100303.34;;;14.07;100.00
22550;BME280;11441;57.164;-2.120;2023-07-24T10:33:07;100300.28;;;14.34;100.00
22550;BME280;11441;57.164;-2.120;2023-07-24T10:35:39;100308.06;;;14.03;100.00
22550;BME280;11441;57.164;-2.120;2023-07-24T10:38:06;100310.50;;;14.15;100.00
22550;BME280;11441;57.164;-2.120;2023-07-24T10:40:33;100318.72;;;13.98;100.00
22550;BME280;11441;57.164;-2.120;2023-07-24T10:43:12;100315.63;;;14.10;100.00
22550;BME280;11441;57.164;-2.120;2023-07-24T10:45:56;100300.66;;;14.22;100.00
22550;BME280;11441;57.164;-2.120;2023-07-24T10:48:25;100311.69;;;14.14;100.00
22550;BME280;11441;57.164;-2.120;2023-07-24T10:50:52;100301.41;;;14.19;100.00
22550;BME280;11441;57.164;-2.120;2023-07-24T10:53:22;100308.41;;;13.91;100.00
22550;BME280;11441;57.164;-2.120;2023-07-24T10:55:50;100315.59;;;14.06;100.00
22550;BME280;11441;57.164;-2.120;2023-07-24T10:58:18;100308.22;;;14.39;100.00
22550;BME280;11441;57.164;-2.120;2023-07-24T11:00:46;100305.34;;;14.14;100.00
22550;BME280;11441;57.164;-2.120;2023-07-24T11:03:16;100321.56;;;14.12;100.00
22550;BME280;11441;57.164;-2.120;2023-07-24T11:05:45;100310.06;;;14.06;100.00
22550;BME280;11441;57.164;-2.120;2023-07-24T11:08:14;100324.22;;;13.87;100.00
22550;BME280;11441;57.164;-2.120;2023-07-24T11:10:52;100316.31;;;13.89;100.00
22550;BME280;11441;57.164;-2.120;2023-07-24T11:13:21;100324.31;;;14.08;100.00
22550;BME280;11441;57.164;-2.120;2023-07-24T11:15:49;100307.34;;;14.17;100.00
22550;BME280;11441;57.164;-2.120;2023-07-24T11:18:16;100315.44;;;14.58;100.00
22550;BME280;11441;57.164;-2.120;2023-07-24T11:20:45;100318.81;;;14.19;100.00
22550;BME280;11441;57.164;-2.120;2023-07-24T11:23:13;100337.56;;;13.77;100.00
22550;BME280;11441;57.164;-2.120;2023-07-24T11:25:41;100324.91;;;13.73;100.00
22550;BME280;11441;57.164;-2.120;2023-07-24T11:28:09;100325.59;;;13.55;100.00
22550;BME280;11441;57.164;-2.120;2023-07-24T11:30:37;100342.84;;;13.38;100.00
22550;BME280;11441;57.164;-2.120;2023-07-24T11:33:22;100343.97;;;13.33;100.00
22550;BME280;11441;57.164;-2.120;2023-07-24T11:35:49;100332.34;;;13.13;100.00
22550;BME280;11441;57.164;-2.120;2023-07-24T11:38:16;100321.59;;;13.53;100.00
22550;BME280;11441;57.164;-2.120;2023-07-24T11:40:44;100333.19;;;13.69;100.00
22550;BME280;11441;57.164;-2.120;2023-07-24T11:43:30;100339.28;;;13.96;100.00
22550;BME280;11441;57.164;-2.120;2023-07-24T11:45:57;100339.94;;;13.75;100.00
22550;BME280;11441;57.164;-2.120;2023-07-24T11:48:24;100340.19;;;13.52;100.00
22550;BME280;11441;57.164;-2.120;2023-07-24T11:50:53;100349.41;;;13.71;100.00
22550;BME280;11441;57.164;-2.120;2023-07-24T11:53:23;100349.78;;;13.69;100.00
22550;BME280;11441;57.164;-2.120;2023-07-24T11:55:51;100341.09;;;13.67;100.00
22550;BME280;11441;57.164;-2.120;2023-07-24T11:58:19;100343.06;;;13.70;100.00
22550;BME280;11441;57.164;-2.120;2023-07-24T12:00:48;100337.75;;;14.03;100.00
22550;BME280;11441;57.164;-2.120;2023-07-24T12:03:23;100328.75;;;14.27;100.00
22550;BME280;11441;57.164;-2.120;2023-07-24T12:05:51;100327.25;;;14.51;100.00
22550;BME280;11441;57.164;-2.120;2023-07-24T12:08:30;100328.00;;;14.34;100.00
22550;BME280;11441;57.164;-2.120;2023-07-24T12:10:58;100327.19;;;14.30;100.00
22550;BME280;11441;57.164;-2.120;2023-07-24T12:13:25;100324.09;;;14.53;100.00
22550;BME280;11441;57.164;-2.120;2023-07-24T12:15:52;100323.78;;;14.73;100.00
22550;BME280;11441;57.164;-2.120;2023-07-24T12:18:19;100315.50;;;14.90;100.00
22550;BME280;11441;57.164;-2.120;2023-07-24T12:20:45;100321.00;;;14.62;100.00
22550;BME280;11441;57.164;-2.120;2023-07-24T12:23:13;100317.06;;;14.77;100.00
22550;BME280;11441;57.164;-2.120;2023-07-24T12:25:40;100328.81;;;14.42;100.00
22550;BME280;11441;57.164;-2.120;2023-07-24T12:28:07;100330.81;;;14.45;100.00
22550;BME280;11441;57.164;-2.120;2023-07-24T12:30:34;100314.91;;;14.27;100.00
22550;BME280;11441;57.164;-2.120;2023-07-24T12:33:01;100321.34;;;14.53;100.00
22550;BME280;11441;57.164;-2.120;2023-07-24T12:35:28;100318.09;;;14.33;100.00
22550;BME280;11441;57.164;-2.120;2023-07-24T12:37:55;100317.34;;;14.43;100.00
22550;BME280;11441;57.164;-2.120;2023-07-24T12:40:22;100310.59;;;14.41;100.00
22550;BME280;11441;57.164;-2.120;2023-07-24T12:43:07;100311.81;;;14.58;100.00
22550;BME280;11441;57.164;-2.120;2023-07-24T12:45:34;100308.28;;;14.57;100.00
22550;BME280;11441;57.164;-2.120;2023-07-24T12:48:01;100343.03;;;14.40;100.00